Time;durP1;ratioP1;P1;durP2;ratioP2;P2;SDS_P1;SDS_P2;PMS_P1;PMS_P2;Temp;Humidity;BMP_temperature;BMP_pressure;BME280_temperature;BME280_humidity;BME280_pressure;Samples;Min_cycle;Max_cycle;Signal;HPM_P1;HPM_P2
2022/01/26 00:06:37;;;;;;;100.20;49.65;;;;;;;-1.93;86.57;141805.55;1793650;79;20987;-59
2022/01/26 00:09:06;;;;;;;107.30;52.17;;;;;;;-1.95;86.57;141800.63;1821156;78;20952;-58
2022/01/26 00:11:35;;;;;;;102.78;50.05;;;;;;;-1.94;87.03;141803.08;1824211;79;20972;-59
2022/01/26 00:14:09;;;;;;;113.68;51.42;;;;;;;-1.93;86.88;141806.83;1824197;78;21451;-58
2022/01/26 00:16:39;;;;;;;112.08;53.95;;;;;;;-1.92;87.05;141808.06;1823856;79;20981;-57
2022/01/26 00:19:08;;;;;;;109.27;53.70;;;;;;;-1.88;87.10;141817.95;1822160;78;21017;-56
2022/01/26 00:21:39;;;;;;;112.03;53.13;;;;;;;-1.86;87.38;141824.16;1824255;78;20996;-56
2022/01/26 00:24:22;;;;;;;120.35;54.25;;;;;;;-1.76;87.53;141847.73;1823661;79;21003;-56
2022/01/26 00:27:02;;;;;;;114.32;53.83;;;;;;;-1.73;87.57;141855.22;1820832;78;21063;-56
2022/01/26 00:29:13;;;;;;;108.37;52.13;;;;;;;-1.66;87.48;141871.33;1816831;78;20973;-56
2022/01/26 00:40:23;;;;;;;110.80;53.83;;;;;;;-1.51;87.05;141907.33;1777159;78;21445;-57
2022/01/26 00:42:46;;;;;;;107.90;50.08;;;;;;;-1.55;87.00;141899.89;1822832;78;20966;-57
2022/01/26 00:45:12;;;;;;;112.05;53.70;;;;;;;-1.50;87.05;141909.80;1827973;78;20987;-57
2022/01/26 00:47:41;;;;;;;109.72;52.98;;;;;;;-1.45;87.17;141922.20;1824117;78;21042;-58
2022/01/26 00:50:11;;;;;;;107.63;51.48;;;;;;;-1.39;87.14;141937.13;1788485;78;21000;-58
2022/01/26 00:52:41;;;;;;;104.27;51.68;;;;;;;-1.35;86.81;141947.03;1775956;81;20965;-58
2022/01/26 00:55:15;;;;;;;104.20;52.03;;;;;;;-1.37;86.64;141942.11;1789892;80;20976;-58
2022/01/26 00:57:45;;;;;;;102.40;49.35;;;;;;;-1.39;86.36;141937.13;1768200;80;21501;-58
2022/01/26 01:00:17;;;;;;;109.30;52.20;;;;;;;-1.42;86.59;141929.69;1768565;80;21441;-57
2022/01/26 01:02:44;;;;;;;92.80;46.83;;;;;;;-1.38;86.79;141940.83;1766382;81;21006;-57
2022/01/26 01:05:18;;;;;;;106.52;50.75;;;;;;;-1.39;86.69;141937.13;1766414;81;20978;-57
2022/01/26 01:07:42;;;;;;;95.35;46.55;;;;;;;-1.42;86.85;141930.92;1765487;81;21516;-57
2022/01/26 01:10:10;;;;;;;99.65;47.90;;;;;;;-1.44;86.71;141924.72;1768496;80;21007;-57
2022/01/26 01:12:42;;;;;;;95.85;46.98;;;;;;;-1.48;86.89;141914.77;1766502;81;21496;-57
2022/01/26 01:15:07;;;;;;;100.27;47.05;;;;;;;-1.50;87.08;141909.80;1765883;81;21465;-57
2022/01/26 01:17:41;;;;;;;92.72;44.35;;;;;;;-1.55;87.19;141899.89;1766404;81;21003;-57
2022/01/26 01:25:47;;;;;;;92.75;47.30;;;;;;;-1.65;87.81;141873.84;1771257;80;20975;-58
2022/01/26 01:30:25;;;;;;;101.60;47.65;;;;;;;-1.68;88.26;141867.63;1798488;78;20998;-57
2022/01/26 01:32:52;;;;;;;102.47;46.25;;;;;;;-1.68;88.33;141866.36;1784822;80;20988;-58
2022/01/26 01:35:09;;;;;;;100.47;46.88;;;;;;;-1.67;88.45;141868.87;1823220;78;20979;-58
2022/01/26 01:37:35;;;;;;;94.37;45.08;;;;;;;-1.76;88.54;141848.97;1797663;79;20974;-57
2022/01/26 01:40:03;;;;;;;92.15;44.73;;;;;;;-1.80;88.93;141837.84;1809600;79;20976;-57
2022/01/26 01:42:30;;;;;;;97.72;43.75;;;;;;;-1.85;89.02;141825.44;1767913;80;21016;-57
2022/01/26 01:44:57;;;;;;;97.15;44.85;;;;;;;-1.89;89.46;141815.48;1777860;81;21086;-57
2022/01/26 01:47:24;;;;;;;91.70;43.78;;;;;;;-1.93;89.82;141806.83;1777921;81;21014;-56
2022/01/26 01:49:51;;;;;;;98.85;44.18;;;;;;;-1.91;90.20;141810.52;1777800;80;21000;-56
2022/01/26 01:52:18;;;;;;;86.60;41.23;;;;;;;-1.91;90.33;141810.52;1759509;79;21012;-57
2022/01/26 01:54:50;;;;;;;87.30;43.08;;;;;;;-1.91;90.58;141810.52;1764170;80;20995;-58
2022/01/26 01:57:20;;;;;;;96.57;46.18;;;;;;;-1.94;90.66;141804.31;1756679;81;20968;-57
2022/01/26 01:59:43;;;;;;;92.88;43.48;;;;;;;-1.95;90.82;141800.63;1757705;81;21028;-57
2022/01/26 02:02:10;;;;;;;95.05;41.68;;;;;;;-1.97;91.15;141798.11;1778501;79;21007;-57
2022/01/26 02:04:37;;;;;;;99.22;46.68;;;;;;;-2.03;91.29;141783.23;1797852;80;20979;-57
2022/01/26 02:07:04;;;;;;;97.55;45.48;;;;;;;-2.15;91.69;141753.47;1779343;80;21453;-57
2022/01/26 02:09:31;;;;;;;91.50;44.42;;;;;;;-2.26;92.21;141726.19;1766310;81;21077;-57
2022/01/26 02:12:00;;;;;;;94.77;43.35;;;;;;;-2.26;92.97;141726.19;1768474;80;21508;-57
2022/01/26 02:14:39;;;;;;;101.10;47.08;;;;;;;-2.24;93.20;141732.39;1766183;81;21425;-58
2022/01/26 02:17:27;;;;;;;103.97;46.00;;;;;;;-2.16;93.62;141751.00;1795925;80;20979;-57
2022/01/26 02:20:09;;;;;;;94.05;43.00;;;;;;;-2.14;93.55;141754.69;1795259;80;20979;-57
2022/01/26 02:52:57;;;;;;;92.62;41.77;;;;;;;-2.26;96.32;141727.42;1795075;77;20969;-58
2022/01/26 02:55:32;;;;;;;84.13;41.73;;;;;;;-2.35;96.56;141703.84;1789889;80;21016;-57
2022/01/26 02:58:04;;;;;;;98.30;43.55;;;;;;;-2.36;97.12;141701.39;1788443;79;20973;-57
2022/01/26 03:01:00;;;;;;;85.57;41.83;;;;;;;-2.30;97.45;141716.25;1787420;80;21020;-58
2022/01/26 03:03:34;;;;;;;94.85;42.80;;;;;;;-2.26;97.44;141727.42;1782676;77;21480;-57
2022/01/26 03:05:23;;;;;;;98.17;43.90;;;;;;;-2.22;97.55;141736.08;1773885;79;21024;-57
2022/01/26 03:07:59;;;;;;;84.62;42.27;;;;;;;-2.18;97.59;141746.03;1791401;79;21005;-57
2022/01/26 03:10:35;;;;;;;89.97;42.25;;;;;;;-2.19;97.58;141744.80;1794819;77;20989;-57
2022/01/26 03:12:57;;;;;;;83.20;40.60;;;;;;;-2.20;97.72;141742.28;1822686;78;20961;-57
2022/01/26 03:15:26;;;;;;;89.92;43.25;;;;;;;-2.25;97.77;141728.66;1823386;78;20968;-57
2022/01/26 03:20:33;;;;;;;82.72;41.92;;;;;;;-2.21;98.28;141738.59;1764510;79;21000;-58
2022/01/26 03:36:15;;;;;;;88.20;43.70;;;;;;;-2.11;99.03;141763.41;1824136;78;20953;-57
2022/01/26 03:38:49;;;;;;;86.42;41.10;;;;;;;-2.01;99.23;141788.22;1827900;78;20976;-58
2022/01/26 03:41:37;;;;;;;83.67;40.30;;;;;;;-1.91;99.40;141810.52;1800251;79;20986;-58
2022/01/26 03:43:59;;;;;;;87.67;40.33;;;;;;;-1.81;99.59;141835.33;1763942;81;21416;-58
2022/01/26 03:46:26;;;;;;;85.47;39.95;;;;;;;-1.76;99.51;141847.73;1763639;81;21003;-58
2022/01/26 03:48:53;;;;;;;80.95;38.35;;;;;;;-1.76;99.45;141847.73;1791722;80;20981;-59
2022/01/26 03:51:20;;;;;;;81.85;37.45;;;;;;;-1.81;99.47;141835.33;1825285;77;20940;-59
2022/01/26 03:53:46;;;;;;;79.15;38.98;;;;;;;-1.81;99.88;141835.33;1798976;78;21012;-58
2022/01/26 03:56:13;;;;;;;86.90;41.75;;;;;;;-1.77;99.91;141846.52;1789388;80;21042;-59
2022/01/26 03:58:40;;;;;;;79.15;41.30;;;;;;;-1.75;99.91;141850.25;1792028;79;21515;-56
2022/01/26 04:01:07;;;;;;;82.30;39.83;;;;;;;-1.78;100.00;141842.77;1791933;79;20996;-59
2022/01/26 04:03:34;;;;;;;86.12;39.73;;;;;;;-1.78;100.00;141842.77;1794096;79;20983;-57
2022/01/26 04:06:01;;;;;;;84.67;38.53;;;;;;;-1.82;100.00;141834.09;1791964;79;20985;-58
2022/01/26 04:08:30;;;;;;;83.27;41.30;;;;;;;-1.85;100.00;141826.66;1791922;80;21119;-58
2022/01/26 04:13:32;;;;;;;79.53;38.05;;;;;;;-1.84;100.00;141827.89;1822046;78;21010;-57
2022/01/26 04:15:59;;;;;;;88.58;40.28;;;;;;;-1.87;100.00;141821.69;1809345;79;21019;-58
2022/01/26 04:18:33;;;;;;;87.60;40.98;;;;;;;-1.89;100.00;141816.72;1791926;79;20956;-58
2022/01/26 04:20:57;;;;;;;94.80;42.13;;;;;;;-1.90;100.00;141813.03;1791837;80;20967;-58
2022/01/26 04:23:38;;;;;;;84.70;40.38;;;;;;;-1.90;100.00;141814.25;1794113;78;21418;-58
2022/01/26 04:25:55;;;;;;;84.28;41.28;;;;;;;-1.91;100.00;141810.52;1791085;80;20987;-58
2022/01/26 04:28:28;;;;;;;76.45;38.78;;;;;;;-1.91;100.00;141811.75;1791991;80;21015;-58
2022/01/26 04:30:50;;;;;;;82.97;39.25;;;;;;;-1.88;100.00;141819.23;1791901;79;21433;-57
2022/01/26 04:33:18;;;;;;;86.50;39.10;;;;;;;-1.86;100.00;141822.92;1794103;79;21073;-57
2022/01/26 04:35:46;;;;;;;83.58;40.52;;;;;;;-1.87;100.00;141820.47;1791934;79;20975;-60
2022/01/26 04:40:51;;;;;;;83.75;37.83;;;;;;;-1.85;100.00;141825.44;1791943;80;20944;-58
2022/01/26 04:43:17;;;;;;;81.35;37.85;;;;;;;-1.87;100.00;141820.47;1796065;79;21003;-58
2022/01/26 04:45:38;;;;;;;82.27;37.33;;;;;;;-1.92;100.00;141808.06;1791751;80;20960;-58
2022/01/26 04:48:05;;;;;;;82.25;40.55;;;;;;;-1.93;100.00;141805.55;1791880;80;21029;-58
2022/01/26 04:50:31;;;;;;;82.47;38.10;;;;;;;-1.94;100.00;141803.08;1782073;79;21523;-58
2022/01/26 04:52:58;;;;;;;83.52;38.45;;;;;;;-2.00;100.00;141790.67;1792835;78;21445;-58
2022/01/26 04:55:25;;;;;;;81.42;38.28;;;;;;;-2.02;100.00;141784.47;1806270;79;20982;-60
2022/01/26 04:57:52;;;;;;;78.75;37.15;;;;;;;-2.05;100.00;141778.27;1808449;79;20970;-60
2022/01/26 05:00:18;;;;;;;75.72;36.70;;;;;;;-2.05;100.00;141778.27;1808466;78;20971;-60
2022/01/26 05:02:47;;;;;;;81.30;36.93;;;;;;;-2.02;100.00;141785.70;1791113;79;21487;-61
2022/01/26 05:05:14;;;;;;;84.95;38.25;;;;;;;-1.97;100.00;141798.11;1806251;78;20939;-61
2022/01/26 05:07:41;;;;;;;80.92;37.30;;;;;;;-1.97;100.00;141798.11;1808502;78;21003;-56
2022/01/26 05:10:08;;;;;;;76.40;38.23;;;;;;;-2.00;100.00;141790.67;1791925;78;20967;-56
2022/01/26 05:12:37;;;;;;;82.92;38.55;;;;;;;-1.98;100.00;141795.66;1779145;79;21030;-56
2022/01/26 05:15:04;;;;;;;77.90;36.85;;;;;;;-2.00;100.00;141790.67;1806259;78;21480;-56
2022/01/26 05:17:32;;;;;;;83.33;37.05;;;;;;;-2.03;100.00;141783.23;1808418;79;20986;-57
2022/01/26 05:20:00;;;;;;;76.25;36.15;;;;;;;-2.08;100.00;141770.84;1808469;79;21491;-57
2022/01/26 05:22:30;;;;;;;72.10;36.45;;;;;;;-2.08;100.00;141769.61;1808461;78;21018;-57
2022/01/26 05:24:56;;;;;;;84.87;39.05;;;;;;;-2.08;100.00;141770.84;1801544;78;21461;-57
2022/01/26 05:27:22;;;;;;;84.60;37.30;;;;;;;-2.08;100.00;141770.84;1806187;78;20986;-57
2022/01/26 05:29:49;;;;;;;73.30;37.78;;;;;;;-2.10;100.00;141765.86;1788310;79;20923;-58
2022/01/26 05:32:16;;;;;;;72.58;34.38;;;;;;;-2.08;100.00;141769.61;1794039;79;20951;-57
2022/01/26 05:34:43;;;;;;;81.65;35.58;;;;;;;-2.11;100.00;141763.41;1788470;79;20911;-58
2022/01/26 05:37:09;;;;;;;78.92;33.88;;;;;;;-2.13;100.00;141758.44;1791253;78;20994;-58
2022/01/26 05:39:38;;;;;;;68.00;31.80;;;;;;;-2.12;100.00;141760.89;1794015;78;20973;-60
2022/01/26 05:42:06;;;;;;;71.82;36.40;;;;;;;-2.12;100.00;141760.89;1791748;79;21417;-58
2022/01/26 05:44:33;;;;;;;66.40;33.00;;;;;;;-2.13;100.00;141758.44;1790161;79;20920;-57
2022/01/26 05:47:00;;;;;;;76.20;34.88;;;;;;;-2.12;100.00;141760.89;1793400;78;21015;-57
2022/01/26 05:49:27;;;;;;;77.70;37.85;;;;;;;-2.13;100.00;141757.20;1790757;78;21527;-57
2022/01/26 05:51:53;;;;;;;74.40;33.95;;;;;;;-2.13;100.00;141758.44;1793810;79;20959;-58
2022/01/26 05:54:20;;;;;;;71.35;34.10;;;;;;;-2.15;100.00;141753.47;1775863;80;20975;-59
2022/01/26 05:56:48;;;;;;;69.92;32.33;;;;;;;-2.15;100.00;141753.47;1768724;81;20944;-57
2022/01/26 05:59:23;;;;;;;65.05;29.87;;;;;;;-2.18;100.00;141746.03;1777757;81;21477;-58
2022/01/26 06:01:48;;;;;;;64.55;30.30;;;;;;;-2.21;100.00;141738.59;1776541;81;21391;-57
2022/01/26 06:04:16;;;;;;;69.17;33.02;;;;;;;-2.22;100.00;141736.08;1806415;78;21385;-60
2022/01/26 06:06:44;;;;;;;73.05;33.85;;;;;;;-2.22;100.00;141737.31;1769497;79;20989;-59
2022/01/26 06:09:10;;;;;;;64.03;30.48;;;;;;;-2.18;100.00;141746.03;1776095;79;20976;-60
2022/01/26 06:11:37;;;;;;;70.90;32.48;;;;;;;-2.17;100.00;141747.25;1775432;79;20921;-59
2022/01/26 06:14:04;;;;;;;64.10;30.40;;;;;;;-2.21;100.00;141738.59;1777416;81;21119;-60
2022/01/26 06:16:31;;;;;;;65.25;32.20;;;;;;;-2.21;100.00;141738.59;1773505;81;20964;-59
2022/01/26 06:18:59;;;;;;;69.62;32.20;;;;;;;-2.22;100.00;141736.08;1803573;78;20935;-61
2022/01/26 06:21:26;;;;;;;70.70;32.70;;;;;;;-2.22;100.00;141737.31;1805047;78;20911;-58
2022/01/26 06:23:52;;;;;;;72.30;31.73;;;;;;;-2.17;100.00;141747.25;1803673;79;20923;-57
2022/01/26 06:26:19;;;;;;;73.45;35.80;;;;;;;-2.17;100.00;141748.48;1769398;79;20947;-56
2022/01/26 06:28:46;;;;;;;70.78;32.53;;;;;;;-2.15;100.00;141753.47;1786269;79;21433;-57
2022/01/26 06:31:15;;;;;;;72.95;33.45;;;;;;;-2.14;100.00;141754.69;1789882;79;21002;-56
2022/01/26 06:33:45;;;;;;;72.30;33.50;;;;;;;-2.14;100.00;141754.69;1788547;80;20964;-57
2022/01/26 06:36:16;;;;;;;76.87;33.97;;;;;;;-2.16;100.00;141751.00;1762940;80;21461;-57
2022/01/26 06:38:46;;;;;;;70.75;32.28;;;;;;;-2.17;100.00;141748.48;1788211;80;21457;-56
2022/01/26 06:41:13;;;;;;;92.88;42.10;;;;;;;-2.19;100.00;141743.52;1780138;79;21454;-57
2022/01/26 06:43:49;;;;;;;74.35;35.95;;;;;;;-2.21;100.00;141739.81;1787646;80;20992;-58
2022/01/26 06:46:18;;;;;;;73.30;35.17;;;;;;;-2.23;100.00;141734.84;1790448;79;21002;-58
2022/01/26 06:48:56;;;;;;;69.00;32.30;;;;;;;-2.23;100.00;141733.63;1781673;80;21010;-58
2022/01/26 06:51:12;;;;;;;69.60;35.65;;;;;;;-2.20;100.00;141741.06;1804968;77;21445;-58
2022/01/26 06:53:40;;;;;;;69.77;32.45;;;;;;;-2.23;100.00;141733.63;1786615;80;21448;-58
2022/01/26 06:56:06;;;;;;;65.37;32.35;;;;;;;-2.28;100.00;141722.45;1798099;80;21414;-58
2022/01/26 06:58:33;;;;;;;70.92;33.88;;;;;;;-2.29;100.00;141719.98;1806357;78;20980;-58
2022/01/26 07:01:00;;;;;;;64.40;31.50;;;;;;;-2.28;100.00;141721.22;1807649;78;20978;-59
2022/01/26 07:03:26;;;;;;;69.65;34.20;;;;;;;-2.28;100.00;141721.22;1784569;78;21015;-58
2022/01/26 07:05:53;;;;;;;74.10;34.88;;;;;;;-2.25;100.00;141728.66;1812365;78;20997;-59
2022/01/26 07:08:21;;;;;;;70.85;32.70;;;;;;;-2.22;100.00;141736.08;1797949;80;20983;-58
2022/01/26 07:10:49;;;;;;;66.97;33.08;;;;;;;-2.20;100.00;141741.06;1826772;78;21012;-58
2022/01/26 07:13:16;;;;;;;70.85;34.18;;;;;;;-2.14;100.00;141754.69;1799568;78;21004;-58
2022/01/26 07:21:27;;;;;;;70.60;32.17;;;;;;;-2.12;100.00;141759.66;1825599;78;21054;-58
2022/01/26 07:23:57;;;;;;;68.80;31.25;;;;;;;-2.13;100.00;141758.44;1804821;78;20980;-59
2022/01/26 07:26:28;;;;;;;57.33;28.42;;;;;;;-2.14;100.00;141755.92;1823784;78;20983;-59
2022/01/26 07:28:58;;;;;;;63.30;31.35;;;;;;;-2.15;100.00;141753.47;1825043;78;20987;-58
2022/01/26 07:31:25;;;;;;;70.17;32.23;;;;;;;-2.15;100.00;141753.47;1825347;78;21014;-58
2022/01/26 07:33:55;;;;;;;66.55;32.08;;;;;;;-2.08;100.00;141770.84;1810844;78;21211;-58
2022/01/26 07:36:24;;;;;;;71.33;33.25;;;;;;;-2.02;100.00;141785.70;1800236;78;20971;-58
2022/01/26 07:38:54;;;;;;;65.32;30.62;;;;;;;-2.02;100.00;141785.70;1824325;78;20932;-58
2022/01/26 07:41:20;;;;;;;58.95;29.45;;;;;;;-1.95;100.00;141801.84;1826714;78;20988;-60
2022/01/26 07:43:47;;;;;;;63.25;29.42;;;;;;;-1.89;100.00;141815.48;1819217;78;20970;-58
2022/01/26 07:46:14;;;;;;;62.05;30.90;;;;;;;-1.85;99.74;141825.44;1826926;78;20980;-58
2022/01/26 07:48:41;;;;;;;56.18;28.77;;;;;;;-1.75;99.69;141850.25;1826914;78;21481;-58
2022/01/26 07:51:08;;;;;;;59.65;28.62;;;;;;;-1.69;98.90;141865.13;1808052;78;21074;-58
2022/01/26 07:53:35;;;;;;;58.25;23.80;;;;;;;-1.71;98.66;141860.16;1763760;79;21061;-58
2022/01/26 07:56:02;;;;;;;59.38;26.33;;;;;;;-1.66;98.25;141871.33;1791429;80;21046;-58
2022/01/26 07:58:28;;;;;;;53.52;25.45;;;;;;;-1.59;97.93;141889.94;1775434;79;21543;-58
2022/01/26 08:00:55;;;;;;;47.17;24.55;;;;;;;-1.50;97.57;141909.80;1791426;79;21383;-58
2022/01/26 08:03:22;;;;;;;44.73;22.00;;;;;;;-1.43;97.00;141927.19;1770203;79;21005;-61
2022/01/26 08:05:51;;;;;;;45.63;22.30;;;;;;;-1.43;96.32;141927.19;1775247;79;21102;-58
2022/01/26 08:08:18;;;;;;;39.27;20.57;;;;;;;-1.47;95.59;141918.52;1774930;79;20977;-59
2022/01/26 08:10:48;;;;;;;45.08;21.55;;;;;;;-1.55;95.38;141899.89;1791258;80;21023;-58
2022/01/26 08:13:14;;;;;;;41.30;20.37;;;;;;;-1.56;95.54;141897.38;1759193;79;21093;-58
2022/01/26 08:15:40;;;;;;;42.23;20.92;;;;;;;-1.55;95.14;141898.66;1768001;79;20975;-58
2022/01/26 08:18:07;;;;;;;46.40;21.50;;;;;;;-1.54;95.23;141902.36;1789579;80;21525;-58
2022/01/26 08:20:34;;;;;;;34.73;16.12;;;;;;;-1.49;94.76;141912.31;1789527;80;21133;-58
2022/01/26 08:23:00;;;;;;;32.00;17.23;;;;;;;-1.47;94.21;141917.28;1739666;82;21042;-58
2022/01/26 08:25:28;;;;;;;32.38;16.17;;;;;;;-1.48;94.09;141914.77;1799269;79;21131;-58
2022/01/26 08:28:05;;;;;;;30.95;15.83;;;;;;;-1.49;93.91;141912.31;1805173;78;20993;-59
2022/01/26 08:30:24;;;;;;;34.40;16.40;;;;;;;-1.46;93.75;141919.75;1804835;79;20982;-58
2022/01/26 08:32:51;;;;;;;30.27;15.35;;;;;;;-1.42;93.29;141929.69;1807576;78;21539;-58
2022/01/26 08:35:17;;;;;;;36.55;18.07;;;;;;;-1.42;93.09;141930.92;1805672;79;21030;-60
2022/01/26 08:37:44;;;;;;;32.23;16.95;;;;;;;-1.37;92.89;141943.34;1807657;78;21026;-59
2022/01/26 08:40:11;;;;;;;43.00;19.00;;;;;;;-1.34;92.89;141949.55;1806370;79;21025;-58
2022/01/26 08:42:41;;;;;;;36.00;16.55;;;;;;;-1.29;92.89;141961.95;1801225;78;20943;-59
2022/01/26 08:45:08;;;;;;;35.48;17.92;;;;;;;-1.25;92.69;141971.86;1807697;78;20995;-58
2022/01/26 08:47:37;;;;;;;38.98;19.95;;;;;;;-1.17;92.92;141991.77;1793311;78;20955;-58
2022/01/26 08:50:06;;;;;;;39.67;19.02;;;;;;;-1.05;92.74;142019.06;1806304;79;21425;-58
2022/01/26 08:52:34;;;;;;;38.90;19.12;;;;;;;-0.95;92.59;142043.89;1723981;82;20979;-59
2022/01/26 08:55:02;;;;;;;43.00;19.20;;;;;;;-0.84;92.25;142071.25;1744777;81;21022;-59
2022/01/26 08:57:29;;;;;;;38.55;18.37;;;;;;;-0.72;92.18;142099.78;1754235;80;20959;-58
2022/01/26 08:59:55;;;;;;;39.05;19.62;;;;;;;-0.66;91.31;142115.95;1764198;81;21017;-58
2022/01/26 09:02:22;;;;;;;35.23;18.02;;;;;;;-0.68;90.99;142109.73;1773804;80;21009;-58
2022/01/26 09:04:49;;;;;;;36.10;19.10;;;;;;;-0.66;90.71;142114.72;1764139;81;21972;-58
2022/01/26 09:07:19;;;;;;;43.00;19.48;;;;;;;-0.70;90.75;142104.75;1764079;80;21014;-58
2022/01/26 09:09:46;;;;;;;38.28;19.00;;;;;;;-0.72;90.87;142099.78;1764267;81;21492;-60
2022/01/26 09:12:17;;;;;;;34.15;17.73;;;;;;;-0.69;90.67;142107.22;1777641;80;20928;-58
2022/01/26 09:14:46;;;;;;;40.05;19.42;;;;;;;-0.68;90.77;142110.97;1795498;80;21492;-58
2022/01/26 09:17:14;;;;;;;34.73;17.23;;;;;;;-0.64;90.91;142118.41;1788107;78;21452;-58
2022/01/26 09:19:44;;;;;;;37.45;19.15;;;;;;;-0.69;90.70;142108.50;1766207;80;21029;-60
2022/01/26 09:22:16;;;;;;;30.80;16.40;;;;;;;-0.71;90.91;142103.53;1792509;78;21902;-57
2022/01/26 09:24:44;;;;;;;31.02;18.77;;;;;;;-0.76;90.67;142091.11;1795471;80;20967;-58
2022/01/26 09:27:16;;;;;;;36.90;19.73;;;;;;;-0.78;90.99;142086.13;1778280;80;21457;-57
2022/01/26 09:29:45;;;;;;;34.30;19.37;;;;;;;-0.82;91.08;142076.17;1792259;80;21002;-57
2022/01/26 09:32:13;;;;;;;35.10;17.65;;;;;;;-0.85;91.58;142067.50;1777672;80;20978;-57
2022/01/26 09:34:41;;;;;;;38.20;18.48;;;;;;;-0.79;91.59;142083.66;1767776;79;21018;-58
2022/01/26 09:37:13;;;;;;;42.73;20.60;;;;;;;-0.74;91.57;142096.09;1794877;80;20935;-58
2022/01/26 09:39:42;;;;;;;32.23;17.60;;;;;;;-0.79;91.41;142083.66;1796123;78;21037;-58
2022/01/26 09:42:10;;;;;;;33.45;17.48;;;;;;;-0.90;91.51;142057.55;1794894;79;20982;-58
2022/01/26 09:44:38;;;;;;;33.20;17.82;;;;;;;-0.92;91.94;142051.34;1769051;79;20987;-58
2022/01/26 09:47:06;;;;;;;35.50;18.27;;;;;;;-0.89;91.98;142058.78;1794184;78;20963;-58
2022/01/26 09:49:35;;;;;;;37.05;17.70;;;;;;;-0.92;92.01;142051.34;1799871;79;21007;-57
2022/01/26 09:52:20;;;;;;;33.18;17.25;;;;;;;-0.92;92.27;142051.34;1802621;79;21035;-57
2022/01/26 09:54:43;;;;;;;41.37;19.48;;;;;;;-0.91;92.33;142053.84;1796455;79;21018;-57
2022/01/26 09:57:11;;;;;;;35.20;17.98;;;;;;;-0.91;92.58;142053.84;1782982;79;21015;-58
2022/01/26 09:59:38;;;;;;;34.48;16.75;;;;;;;-0.92;92.50;142051.34;1794886;80;21041;-58
2022/01/26 10:02:05;;;;;;;34.78;17.07;;;;;;;-0.90;92.67;142056.31;1769604;79;20956;-57
2022/01/26 10:04:36;;;;;;;35.20;18.10;;;;;;;-0.80;92.65;142081.16;1758106;82;20992;-57
2022/01/26 10:07:29;;;;;;;38.43;17.73;;;;;;;-0.68;92.51;142110.97;1780898;79;21007;-58
2022/01/26 10:15:39;;;;;;;36.58;17.92;;;;;;;-0.44;91.16;142168.11;1784472;78;21527;-57
2022/01/26 10:18:14;;;;;;;37.03;16.95;;;;;;;-0.32;90.35;142197.94;1797379;78;21464;-58
2022/01/26 10:21:01;;;;;;;32.95;16.73;;;;;;;-0.32;89.96;142197.94;1798299;78;21027;-60
2022/01/26 10:23:37;;;;;;;37.78;17.92;;;;;;;-0.26;90.20;142212.83;1775111;79;20975;-62
2022/01/26 10:26:12;;;;;;;28.67;16.42;;;;;;;-0.10;89.87;142250.11;1777127;80;21908;-60
2022/01/26 10:28:47;;;;;;;29.32;14.95;;;;;;;0.01;89.04;142277.48;1777276;81;21946;-57
2022/01/26 10:31:36;;;;;;;33.42;16.40;;;;;;;-0.01;87.81;142272.50;1775196;79;21020;-57
2022/01/26 10:34:12;;;;;;;28.62;14.47;;;;;;;-0.11;87.09;142247.64;1765567;81;20982;-57
2022/01/26 10:36:48;;;;;;;26.77;13.28;;;;;;;-0.24;87.21;142217.81;1775904;79;20995;-57
2022/01/26 10:39:34;;;;;;;29.27;14.73;;;;;;;-0.24;86.52;142217.81;1777175;81;21059;-57
2022/01/26 10:42:05;;;;;;;32.75;14.98;;;;;;;-0.24;86.85;142216.58;1780337;79;20976;-57
2022/01/26 10:44:50;;;;;;;26.65;14.13;;;;;;;-0.22;86.13;142221.55;1758799;79;21011;-56
2022/01/26 10:47:11;;;;;;;24.18;12.78;;;;;;;-0.22;86.03;142222.78;1733927;81;21878;-57
2022/01/26 10:52:35;;;;;;;29.87;14.80;;;;;;;-0.16;85.68;142235.22;1748529;81;21003;-56
2022/01/26 10:54:58;;;;;;;27.22;13.15;;;;;;;-0.04;85.60;142265.05;1767042;79;21027;-57
2022/01/26 10:57:25;;;;;;;21.87;11.80;;;;;;;0.07;85.00;142291.14;1797245;79;20954;-57
2022/01/26 10:59:53;;;;;;;22.93;11.60;;;;;;;0.14;83.97;142309.78;1808926;79;21035;-57
2022/01/26 11:02:25;;;;;;;28.25;12.47;;;;;;;0.09;82.69;142297.36;1789692;80;21433;-57
2022/01/26 11:04:49;;;;;;;27.60;12.37;;;;;;;0.04;82.75;142283.69;1776902;81;21474;-57
2022/01/26 11:07:17;;;;;;;22.22;11.03;;;;;;;0.01;83.07;142277.48;1777447;81;21027;-57
2022/01/26 11:09:48;;;;;;;25.12;12.90;;;;;;;-0.05;82.48;142262.53;1777327;81;21028;-57
2022/01/26 11:12:27;;;;;;;21.55;11.03;;;;;;;-0.09;82.38;142252.63;1769636;79;21414;-57
2022/01/26 11:15:13;;;;;;;21.35;11.38;;;;;;;-0.10;82.28;142250.11;1795066;80;20982;-57
2022/01/26 11:17:46;;;;;;;24.92;11.40;;;;;;;-0.06;81.92;142260.06;1772369;80;21147;-57
2022/01/26 11:20:33;;;;;;;18.17;8.87;;;;;;;-0.06;81.60;142261.30;1793891;80;20979;-56
2022/01/26 11:23:03;;;;;;;18.32;9.80;;;;;;;-0.24;79.39;142216.58;1777417;81;21469;-57
2022/01/26 11:25:43;;;;;;;18.57;9.63;;;;;;;-0.36;80.53;142186.75;1797507;78;20967;-58
2022/01/26 11:28:26;;;;;;;20.10;8.68;;;;;;;-0.37;80.91;142185.50;1746749;82;21063;-57
2022/01/26 11:30:59;;;;;;;13.75;7.40;;;;;;;-0.39;79.10;142179.30;1761274;79;20991;-57
2022/01/26 11:33:27;;;;;;;14.43;6.67;;;;;;;-0.44;77.82;142169.34;1788390;79;21572;-58
2022/01/26 11:35:57;;;;;;;12.63;6.22;;;;;;;-0.52;75.42;142149.47;1767258;79;21017;-57
2022/01/26 11:47:21;;;;;;;14.85;6.30;;;;;;;-0.46;74.79;142163.13;1788890;79;21035;-58
2022/01/26 11:49:54;;;;;;;;;;;;;;;-0.46;74.29;142164.41;1810036;79;21508;-58
2022/01/26 11:52:26;;;;;;;;;;;;;;;-0.45;73.58;142165.64;1806620;77;20074;-58
2022/01/26 11:54:57;;;;;;;13.32;5.53;;;;;;;-0.46;72.54;142163.13;1809808;78;20130;-59
2022/01/26 11:57:49;;;;;;;10.50;5.03;;;;;;;-0.48;71.81;142159.44;1814102;78;21007;-58
2022/01/26 12:00:22;;;;;;;12.98;5.30;;;;;;;-0.48;70.50;142159.44;1807023;79;20987;-58
2022/01/26 12:05:19;;;;;;;9.83;4.95;;;;;;;-0.50;69.48;142153.22;1807342;79;20983;-57
2022/01/26 12:07:58;;;;;;;14.63;5.70;;;;;;;-0.54;69.56;142143.27;1779635;78;21925;-58
2022/01/26 12:10:30;;;;;;;10.82;5.20;;;;;;;-0.54;69.32;142143.27;1775458;81;20995;-58
2022/01/26 12:13:12;;;;;;;12.70;6.15;;;;;;;-0.58;69.20;142133.34;1775360;81;21114;-58
2022/01/26 12:15:50;;;;;;;11.83;5.45;;;;;;;-0.54;69.71;142143.27;1775658;81;20974;-58
2022/01/26 12:18:39;;;;;;;14.35;6.45;;;;;;;-0.54;68.82;142143.27;1835202;78;20983;-58
2022/01/26 12:34:40;;;;;;;12.03;5.60;;;;;;;-0.76;69.96;142089.87;1793995;78;20979;-58
2022/01/26 12:42:41;;;;;;;14.35;6.55;;;;;;;-0.73;70.72;142098.55;1772539;81;21027;-58
2022/01/26 12:45:03;;;;;;;12.63;6.45;;;;;;;-0.51;71.33;142151.98;1807078;77;20987;-58
2022/01/26 12:47:31;;;;;;;15.93;6.55;;;;;;;-0.49;70.62;142155.69;1791291;79;21482;-58
2022/01/26 12:49:59;;;;;;;13.22;6.53;;;;;;;-0.51;70.87;142150.70;1791407;79;21079;-58
2022/01/26 12:52:28;;;;;;;16.40;7.05;;;;;;;-0.54;71.22;142143.27;1799453;78;21107;-58
2022/01/26 12:54:54;;;;;;;15.03;7.47;;;;;;;-0.59;71.79;142130.84;1822554;77;20965;-59
2022/01/26 12:57:21;;;;;;;17.20;7.17;;;;;;;-0.59;72.33;142130.84;1807459;78;21014;-58
2022/01/26 13:00:00;;;;;;;16.40;7.85;;;;;;;-0.55;72.75;142140.80;1812376;78;21027;-57
2022/01/26 13:02:27;;;;;;;15.32;8.35;;;;;;;-0.55;73.30;142140.80;1822204;77;21000;-57
2022/01/26 13:05:02;;;;;;;19.75;9.25;;;;;;;-0.57;73.77;142135.81;1786841;78;21418;-57
2022/01/26 13:07:29;;;;;;;18.85;8.78;;;;;;;-0.60;74.23;142128.38;1823670;79;20995;-58
2022/01/26 13:09:56;;;;;;;19.65;9.65;;;;;;;-0.59;74.61;142130.84;1822881;78;21003;-58
2022/01/26 13:12:33;;;;;;;15.80;8.33;;;;;;;-0.59;74.87;142130.84;1823786;79;20951;-58
2022/01/26 13:15:08;;;;;;;19.45;8.40;;;;;;;-0.59;75.07;142132.06;1816635;78;21580;-57